createdAt,value
2022-12-11T00:00:30.058Z,-0.75
2022-12-11T00:02:58.045Z,-0.84
2022-12-11T00:05:25.830Z,-0.84
2022-12-11T00:07:53.657Z,-0.78
2022-12-11T00:10:21.465Z,-0.81
2022-12-11T00:12:49.225Z,-0.79
2022-12-11T00:15:18.603Z,-0.81
2022-12-11T00:17:46.195Z,-0.82
2022-12-11T00:20:14.007Z,-0.82
2022-12-11T00:22:41.805Z,-0.82
2022-12-11T00:25:10.399Z,-0.76
2022-12-11T00:27:39.068Z,-0.75
2022-12-11T00:30:08.190Z,-0.82
2022-12-11T00:32:37.887Z,-0.74
2022-12-11T00:35:06.294Z,-0.75
2022-12-11T00:37:34.124Z,-0.72
2022-12-11T00:40:01.963Z,-0.75
2022-12-11T00:42:29.701Z,-0.75
2022-12-11T00:44:57.820Z,-0.76
2022-12-11T00:47:25.577Z,-0.79
2022-12-11T00:49:54.660Z,-0.72
2022-12-11T00:52:22.408Z,-0.71
2022-12-11T00:54:50.178Z,-0.74
2022-12-11T00:57:17.961Z,-0.69
2022-12-11T00:59:45.751Z,-0.74
2022-12-11T01:02:13.692Z,-0.74
2022-12-11T01:04:41.457Z,-0.74
2022-12-11T01:07:10.703Z,-0.72
2022-12-11T01:09:55.850Z,-0.71
2022-12-11T01:12:23.630Z,-0.78
2022-12-11T01:14:52.123Z,-0.82
2022-12-11T01:17:19.930Z,-0.76
2022-12-11T01:19:47.842Z,-0.78
2022-12-11T01:22:16.929Z,-0.86
2022-12-11T01:24:47.840Z,-0.84
2022-12-11T01:27:15.644Z,-0.88
2022-12-11T01:29:43.446Z,-0.84
2022-12-11T01:32:11.236Z,-0.79
2022-12-11T01:34:42.160Z,-0.82
2022-12-11T01:37:09.965Z,-0.79
2022-12-11T01:39:39.468Z,-0.81
2022-12-11T01:42:10.305Z,-0.72
2022-12-11T01:45:27.450Z,-0.76
2022-12-11T01:47:59.354Z,-0.78
2022-12-11T01:50:27.319Z,-0.84
2022-12-11T01:52:55.183Z,-0.82
2022-12-11T01:55:24.388Z,-0.84
2022-12-11T01:57:53.951Z,-0.78
2022-12-11T02:00:22.485Z,-0.82
2022-12-11T02:02:50.320Z,-0.79
2022-12-11T02:05:18.181Z,-0.74
2022-12-11T02:07:50.547Z,-0.74
2022-12-11T02:10:18.650Z,-0.72
2022-12-11T02:12:58.563Z,-0.71
2022-12-11T02:15:36.772Z,-0.64
2022-12-11T02:18:15.083Z,-0.65
2022-12-11T02:20:47.335Z,-0.74
2022-12-11T02:23:48.439Z,-0.82
2022-12-11T02:26:32.617Z,-0.84
2022-12-11T02:29:03.706Z,-0.72
2022-12-11T02:31:38.228Z,-0.69
2022-12-11T02:34:10.990Z,-0.74
2022-12-11T02:36:42.599Z,-0.75
2022-12-11T02:39:13.316Z,-0.84
2022-12-11T02:41:43.937Z,-0.86
2022-12-11T02:44:16.120Z,-0.86
2022-12-11T02:46:45.233Z,-0.85
2022-12-11T02:49:14.489Z,-0.84
2022-12-11T02:51:43.528Z,-0.91
2022-12-11T02:54:16.876Z,-0.89
2022-12-11T02:56:47.677Z,-0.88
2022-12-11T02:59:22.447Z,-0.88
2022-12-11T03:01:50.436Z,-0.85
2022-12-11T03:04:18.499Z,-0.91
2022-12-11T03:06:50.244Z,-0.85
2022-12-11T03:09:18.016Z,-0.88
2022-12-11T03:11:45.946Z,-0.82
2022-12-11T03:14:14.694Z,-0.81
2022-12-11T03:16:51.476Z,-0.81
2022-12-11T03:19:25.196Z,-0.79
2022-12-11T03:21:56.595Z,-0.79
2022-12-11T03:24:31.472Z,-0.75
2022-12-11T03:27:04.546Z,-0.79
2022-12-11T03:29:39.909Z,-0.79
2022-12-11T03:32:12.638Z,-0.66
2022-12-11T03:34:45.893Z,-0.66
2022-12-11T03:37:15.177Z,-0.65
2022-12-11T03:39:44.743Z,-0.66
2022-12-11T03:42:14.893Z,-0.58
2022-12-11T03:44:45.345Z,-0.50
2022-12-11T03:47:18.489Z,-0.54
2022-12-11T03:49:47.534Z,-0.53
2022-12-11T03:52:16.837Z,-0.45
2022-12-11T03:54:48.646Z,-0.42
2022-12-11T03:57:23.330Z,-0.42
2022-12-11T03:59:51.216Z,-0.44
2022-12-11T04:02:20.293Z,-0.44
2022-12-11T04:04:48.055Z,-0.40
2022-12-11T04:07:15.834Z,-0.24
2022-12-11T04:09:43.634Z,-0.15
2022-12-11T04:12:11.399Z,-0.17
2022-12-11T04:14:56.491Z,-0.24
2022-12-11T04:17:43.272Z,-0.15
2022-12-11T04:20:29.696Z,-0.13
2022-12-11T04:23:14.898Z,-0.20
2022-12-11T04:25:42.699Z,-0.14
2022-12-11T04:28:10.484Z,-0.18
2022-12-11T04:30:38.218Z,-0.24
2022-12-11T04:33:07.282Z,-0.33
2022-12-11T04:35:35.023Z,-0.37
2022-12-11T04:38:02.803Z,-0.48
2022-12-11T04:40:30.549Z,-0.50
2022-12-11T04:42:58.300Z,-0.50
2022-12-11T04:45:26.046Z,-0.53
2022-12-11T04:47:53.747Z,-0.41
2022-12-11T04:50:23.037Z,0.10
2022-12-11T04:52:50.843Z,0.28
2022-12-11T04:55:18.720Z,0.40
2022-12-11T04:57:46.633Z,0.31
2022-12-11T05:00:15.422Z,0.27
2022-12-11T05:02:43.812Z,0.47
2022-12-11T05:05:12.259Z,0.21
2022-12-11T05:07:42.064Z,0.32
2022-12-11T05:10:11.245Z,0.18
2022-12-11T05:12:39.090Z,0.18
2022-12-11T05:15:08.546Z,0.07
2022-12-11T05:17:36.479Z,0.07
2022-12-11T05:20:04.822Z,-0.04
2022-12-11T05:22:32.868Z,-0.09
2022-12-11T05:25:01.938Z,-0.15
2022-12-11T05:27:29.693Z,-0.09
2022-12-11T05:29:59.571Z,0.01
2022-12-11T05:32:27.880Z,0.07
2022-12-11T05:34:56.154Z,-0.14
2022-12-11T05:37:24.013Z,-0.11
2022-12-11T05:39:51.720Z,-0.18
2022-12-11T05:42:24.101Z,-0.11
2022-12-11T05:44:56.241Z,-0.20
2022-12-11T05:47:23.962Z,-0.42
2022-12-11T05:49:51.696Z,-0.50
2022-12-11T05:52:19.541Z,-0.57
2022-12-11T05:54:49.700Z,-0.60
2022-12-11T05:57:17.476Z,-0.64
2022-12-11T05:59:46.571Z,-0.65
2022-12-11T06:02:14.396Z,-0.54
2022-12-11T06:04:42.281Z,-0.44
2022-12-11T06:07:10.027Z,-0.38
2022-12-11T06:09:37.776Z,-0.45
2022-12-11T06:12:05.836Z,-0.51
2022-12-11T06:14:33.607Z,-0.54
2022-12-11T06:17:02.678Z,-0.42
2022-12-11T06:19:36.398Z,-0.44
2022-12-11T06:22:04.857Z,-0.54
2022-12-11T06:24:32.606Z,-0.61
2022-12-11T06:27:00.394Z,-0.69
2022-12-11T06:29:30.463Z,-0.71
2022-12-11T06:31:58.262Z,-0.68
2022-12-11T06:34:27.488Z,-0.74
2022-12-11T06:36:55.247Z,-0.82
2022-12-11T06:39:23.044Z,-0.81
2022-12-11T06:41:50.780Z,-0.78
2022-12-11T06:44:18.535Z,-0.82
2022-12-11T06:46:46.290Z,-0.81
2022-12-11T06:49:14.033Z,-0.84
2022-12-11T06:51:43.137Z,-0.79
2022-12-11T06:54:10.885Z,-0.68
2022-12-11T06:56:38.629Z,-0.61
2022-12-11T06:59:07.727Z,-0.62
2022-12-11T07:01:35.544Z,-0.61
2022-12-11T07:04:03.281Z,-0.69
2022-12-11T07:06:31.169Z,-0.82
2022-12-11T07:09:00.315Z,-0.76
2022-12-11T07:11:28.114Z,-0.76
2022-12-11T07:13:55.880Z,-0.81
2022-12-11T07:16:25.739Z,-0.95
2022-12-11T07:18:53.673Z,-0.86
2022-12-11T07:21:21.890Z,-1.00
2022-12-11T07:23:50.643Z,-0.93
2022-12-11T07:26:21.577Z,-0.97
2022-12-11T07:28:50.184Z,-1.02
2022-12-11T07:31:21.948Z,-0.95
2022-12-11T07:33:54.924Z,-1.00
2022-12-11T07:36:23.043Z,-0.96
2022-12-11T07:38:50.946Z,-0.96
2022-12-11T07:41:20.398Z,-0.95
2022-12-11T07:43:54.038Z,-0.88
2022-12-11T07:46:23.877Z,-0.89
2022-12-11T07:48:51.960Z,-0.82
2022-12-11T07:51:22.744Z,-0.78
2022-12-11T07:53:51.528Z,-0.79
2022-12-11T07:56:20.882Z,-0.86
2022-12-11T07:58:48.494Z,-0.89
2022-12-11T08:01:18.579Z,-0.84
2022-12-11T08:03:46.438Z,-0.91
2022-12-11T08:06:14.502Z,-0.88
2022-12-11T08:08:42.902Z,-0.84
2022-12-11T08:11:12.541Z,-0.92
2022-12-11T08:13:42.260Z,-0.93
2022-12-11T08:16:13.061Z,-0.93
2022-12-11T08:18:41.827Z,-0.99
2022-12-11T08:21:10.995Z,-0.96
2022-12-11T08:23:38.796Z,-0.96
2022-12-11T08:26:08.438Z,-0.88
2022-12-11T08:28:36.016Z,-0.76
2022-12-11T08:31:07.661Z,-0.82
2022-12-11T08:33:36.372Z,-0.79
2022-12-11T08:36:04.796Z,-0.72
2022-12-11T08:38:32.580Z,-0.69
2022-12-11T08:41:00.526Z,-0.65
2022-12-11T08:43:28.223Z,-0.55
2022-12-11T08:45:56.030Z,-0.53
2022-12-11T08:48:25.205Z,-0.57
2022-12-11T08:50:52.976Z,-0.58
2022-12-11T08:53:20.720Z,-0.68
2022-12-11T08:55:48.482Z,-0.72
2022-12-11T08:58:16.236Z,-0.58
2022-12-11T09:00:43.947Z,-0.53
2022-12-11T09:03:13.074Z,-0.44
2022-12-11T09:05:42.275Z,-0.42
2022-12-11T09:08:10.081Z,-0.50
2022-12-11T09:10:37.884Z,-0.40
2022-12-11T09:13:05.761Z,-0.23
2022-12-11T09:15:33.556Z,0.32
2022-12-11T09:18:01.320Z,1.24
2022-12-11T09:20:29.047Z,2.15
2022-12-11T09:22:58.133Z,3.21
2022-12-11T09:25:25.878Z,3.46
2022-12-11T09:27:53.655Z,3.35
2022-12-11T09:30:21.694Z,3.35
2022-12-11T09:32:49.457Z,3.43
2022-12-11T09:35:17.421Z,3.39
2022-12-11T09:37:45.173Z,3.60
2022-12-11T09:40:14.861Z,3.39
2022-12-11T09:42:51.847Z,3.38
2022-12-11T09:45:20.085Z,3.14
2022-12-11T09:47:51.026Z,2.46
2022-12-11T09:50:22.119Z,2.39
2022-12-11T09:53:00.878Z,2.18
2022-12-11T09:55:36.163Z,1.89
2022-12-11T09:58:12.294Z,1.99
2022-12-11T10:00:42.689Z,3.19
2022-12-11T10:03:32.849Z,3.75
2022-12-11T10:06:06.734Z,4.04
2022-12-11T10:08:41.129Z,5.40
2022-12-11T10:11:25.721Z,5.51
2022-12-11T10:14:02.911Z,6.47
2022-12-11T10:16:37.720Z,6.87
2022-12-11T10:19:05.790Z,7.98
2022-12-11T10:21:40.980Z,8.78
2022-12-11T10:24:40.819Z,9.57
2022-12-11T10:27:15.951Z,8.78
2022-12-11T10:29:44.014Z,7.51
2022-12-11T10:32:21.596Z,6.62
2022-12-11T10:34:54.129Z,5.88
2022-12-11T10:37:21.980Z,5.15
2022-12-11T10:39:49.760Z,4.58
2022-12-11T10:42:21.554Z,4.22
2022-12-11T10:45:00.502Z,3.97
2022-12-11T10:47:28.346Z,3.86
2022-12-11T10:49:58.305Z,3.73
2022-12-11T10:52:28.464Z,3.43
2022-12-11T10:55:00.696Z,3.22
2022-12-11T10:57:33.332Z,2.95
2022-12-11T11:00:01.709Z,2.95
2022-12-11T11:02:33.077Z,2.76
2022-12-11T11:05:02.559Z,2.94
2022-12-11T11:07:30.719Z,2.85
2022-12-11T11:10:15.050Z,2.85
2022-12-11T11:12:45.861Z,2.47
2022-12-11T11:15:16.460Z,2.30
2022-12-11T11:17:54.554Z,2.08
2022-12-11T11:20:25.469Z,2.06
2022-12-11T11:22:56.010Z,3.12
2022-12-11T11:25:25.759Z,3.26
2022-12-11T11:27:57.262Z,4.66
2022-12-11T11:30:27.230Z,5.58
2022-12-11T11:32:57.526Z,6.09
2022-12-11T11:35:27.230Z,6.53
2022-12-11T11:38:01.514Z,7.11
2022-12-11T11:40:31.772Z,7.53
2022-12-11T11:43:08.744Z,7.73
2022-12-11T11:45:43.995Z,7.84
2022-12-11T11:48:21.323Z,7.93
2022-12-11T11:50:52.026Z,7.98
2022-12-11T11:53:25.354Z,7.93
2022-12-11T11:56:02.658Z,7.96
2022-12-11T11:58:40.591Z,7.97
2022-12-11T12:01:15.525Z,8.07
2022-12-11T12:03:43.395Z,7.75
2022-12-11T12:06:18.875Z,7.62
2022-12-11T12:08:56.463Z,7.24
2022-12-11T12:11:33.671Z,6.90
2022-12-11T12:14:35.834Z,7.46
2022-12-11T12:17:10.828Z,7.39
2022-12-11T12:19:47.982Z,7.73
2022-12-11T12:22:36.298Z,7.84
2022-12-11T12:25:17.460Z,8.20
2022-12-11T12:27:53.050Z,8.14
2022-12-11T12:30:23.828Z,7.61
2022-12-11T12:33:05.386Z,6.44
2022-12-11T12:35:36.720Z,5.95
2022-12-11T12:38:12.205Z,5.26
2022-12-11T12:40:52.775Z,4.72
2022-12-11T12:43:38.126Z,4.24
2022-12-11T12:46:16.265Z,4.25
2022-12-11T12:48:45.998Z,4.20
2022-12-11T12:51:15.594Z,4.07
2022-12-11T12:53:48.506Z,3.85
2022-12-11T12:56:17.620Z,3.73
2022-12-11T12:58:47.256Z,3.69
2022-12-11T13:01:20.371Z,3.55
2022-12-11T13:03:55.379Z,3.56
2022-12-11T13:06:32.127Z,3.36
2022-12-11T13:09:13.322Z,3.31
2022-12-11T13:11:41.183Z,3.08
2022-12-11T13:14:27.094Z,2.88
2022-12-11T13:17:07.489Z,2.77
2022-12-11T13:19:42.138Z,2.90
2022-12-11T13:22:23.088Z,2.81
2022-12-11T13:24:59.737Z,2.64
2022-12-11T13:27:38.338Z,2.68
2022-12-11T13:30:21.628Z,2.52
2022-12-11T13:33:01.882Z,2.21
2022-12-11T13:35:30.465Z,2.08
2022-12-11T13:38:05.315Z,2.05
2022-12-11T13:40:39.482Z,2.06
2022-12-11T13:43:11.155Z,2.06
2022-12-11T13:45:46.810Z,2.01
2022-12-11T13:48:23.286Z,1.99
2022-12-11T13:50:52.554Z,1.92
2022-12-11T13:53:21.273Z,1.94
2022-12-11T13:55:58.343Z,2.02
2022-12-11T13:58:26.673Z,2.01
2022-12-11T14:01:03.955Z,2.01
2022-12-11T14:03:33.749Z,1.95
2022-12-11T14:06:02.851Z,2.05
2022-12-11T14:08:35.314Z,2.08
2022-12-11T14:11:03.662Z,2.03
2022-12-11T14:13:35.121Z,2.05
2022-12-11T14:16:04.046Z,1.98
2022-12-11T14:18:36.348Z,1.95
2022-12-11T14:21:06.230Z,1.99
2022-12-11T14:23:35.138Z,1.91
2022-12-11T14:26:04.972Z,1.88
2022-12-11T14:28:39.337Z,1.82
2022-12-11T14:31:07.917Z,1.67
2022-12-11T14:33:42.005Z,1.62
2022-12-11T14:36:10.953Z,1.60
2022-12-11T14:38:44.329Z,1.64
2022-12-11T14:41:17.595Z,1.68
2022-12-11T14:43:49.068Z,1.55
2022-12-11T14:46:19.836Z,1.51
2022-12-11T14:49:00.831Z,1.40
2022-12-11T14:51:32.307Z,1.36
2022-12-11T14:54:00.537Z,1.36
2022-12-11T14:56:30.636Z,1.22
2022-12-11T14:59:01.375Z,1.16
2022-12-11T15:01:31.203Z,1.17
2022-12-11T15:04:17.245Z,1.01
2022-12-11T15:06:47.035Z,0.99
2022-12-11T15:09:22.851Z,0.92
2022-12-11T15:11:52.071Z,0.90
2022-12-11T15:14:21.666Z,0.89
2022-12-11T15:16:51.521Z,0.92
2022-12-11T15:19:24.437Z,0.70
2022-12-11T15:21:53.158Z,0.48
2022-12-11T15:24:31.396Z,0.32
2022-12-11T15:27:01.099Z,0.22
2022-12-11T15:29:35.025Z,0.13
2022-12-11T15:32:18.933Z,0.11
2022-12-11T15:34:49.980Z,0.18
2022-12-11T15:37:25.941Z,0.17
2022-12-11T15:39:55.138Z,-0.03
2022-12-11T15:42:27.074Z,-0.24
2022-12-11T15:44:56.362Z,-0.47
2022-12-11T15:47:26.456Z,-0.55
2022-12-11T15:49:59.360Z,-0.53
2022-12-11T15:52:27.187Z,-0.57
2022-12-11T15:54:55.226Z,-0.62
2022-12-11T15:57:25.279Z,-0.79
2022-12-11T15:59:54.836Z,-0.99
2022-12-11T16:02:24.219Z,-1.23
2022-12-11T16:04:52.145Z,-1.25
2022-12-11T16:07:23.749Z,-1.35
2022-12-11T16:09:51.825Z,-1.51
2022-12-11T16:12:20.315Z,-1.56
2022-12-11T16:14:48.143Z,-1.66
2022-12-11T16:17:16.834Z,-1.71
2022-12-11T16:19:45.448Z,-1.81
2022-12-11T16:22:14.502Z,-1.91
2022-12-11T16:24:44.255Z,-1.91
2022-12-11T16:27:12.115Z,-1.88
2022-12-11T16:29:42.611Z,-1.89
2022-12-11T16:32:11.108Z,-1.99
2022-12-11T16:34:39.393Z,-2.08
2022-12-11T16:37:08.206Z,-2.13
2022-12-11T16:39:36.800Z,-2.01
2022-12-11T16:42:06.586Z,-1.81
2022-12-11T16:44:37.258Z,-1.88
2022-12-11T16:47:07.391Z,-2.03
2022-12-11T16:49:35.190Z,-2.16
2022-12-11T16:52:02.963Z,-2.28
2022-12-11T16:54:30.747Z,-2.15
2022-12-11T16:56:58.530Z,-2.02
2022-12-11T16:59:29.953Z,-1.98
2022-12-11T17:02:00.141Z,-2.09
2022-12-11T17:04:28.674Z,-2.18
2022-12-11T17:06:56.441Z,-2.25
2022-12-11T17:09:24.233Z,-2.36
2022-12-11T17:11:54.699Z,-2.43
2022-12-11T17:14:22.610Z,-2.52
2022-12-11T17:16:52.004Z,-2.56
2022-12-11T17:19:21.005Z,-2.66
2022-12-11T17:21:51.638Z,-2.71
2022-12-11T17:24:19.756Z,-2.79
2022-12-11T17:26:47.738Z,-2.76
2022-12-11T17:29:15.613Z,-2.80
2022-12-11T17:31:43.456Z,-2.79
2022-12-11T17:34:12.660Z,-2.83
2022-12-11T17:36:40.448Z,-2.76
2022-12-11T17:39:08.334Z,-2.87
2022-12-11T17:41:36.112Z,-2.90
2022-12-11T17:44:04.050Z,-2.92
2022-12-11T17:46:31.966Z,-3.00
2022-12-11T17:49:00.218Z,-3.08
2022-12-11T17:51:29.477Z,-3.04
2022-12-11T17:53:57.674Z,-2.95
2022-12-11T17:56:26.261Z,-2.81
2022-12-11T17:58:54.134Z,-2.71
2022-12-11T18:01:22.011Z,-2.64
2022-12-11T18:03:49.895Z,-2.67
2022-12-11T18:06:18.040Z,-2.66
2022-12-11T18:08:47.190Z,-2.70
2022-12-11T18:11:17.477Z,-2.71
2022-12-11T18:13:46.643Z,-2.61
2022-12-11T18:16:17.229Z,-2.42
2022-12-11T18:18:45.822Z,-2.29
2022-12-11T18:21:14.417Z,-2.21
2022-12-11T18:23:42.251Z,-2.16
2022-12-11T18:26:14.356Z,-1.94
2022-12-11T18:28:42.443Z,-1.82
2022-12-11T18:31:11.062Z,-1.75
2022-12-11T18:33:39.866Z,-1.67
2022-12-11T18:36:08.847Z,-1.64
2022-12-11T18:38:37.573Z,-1.58
2022-12-11T18:41:06.359Z,-1.51
2022-12-11T18:43:36.159Z,-1.44
2022-12-11T18:46:06.726Z,-1.30
2022-12-11T18:48:34.595Z,-1.20
2022-12-11T18:51:02.379Z,-1.10
2022-12-11T18:53:30.104Z,-1.03
2022-12-11T18:56:00.577Z,-1.07
2022-12-11T18:58:28.634Z,-0.97
2022-12-11T19:00:57.769Z,-0.91
2022-12-11T19:03:25.594Z,-0.82
2022-12-11T19:05:53.389Z,-0.75
2022-12-11T19:08:22.076Z,-0.81
2022-12-11T19:10:50.037Z,-0.71
2022-12-11T19:13:17.840Z,-0.65
2022-12-11T19:15:45.665Z,-0.64
2022-12-11T19:18:14.877Z,-0.60
2022-12-11T19:21:02.837Z,-0.57
2022-12-11T19:23:32.174Z,-0.57
2022-12-11T19:25:59.966Z,-0.58
2022-12-11T19:28:27.805Z,-0.54
2022-12-11T19:30:55.697Z,-0.55
2022-12-11T19:33:24.916Z,-0.51
2022-12-11T19:36:01.737Z,-0.47
2022-12-11T19:38:29.621Z,-0.42
2022-12-11T19:40:57.429Z,-0.51
2022-12-11T19:43:25.245Z,-0.54
2022-12-11T19:45:53.050Z,-0.50
2022-12-11T19:48:20.874Z,-0.47
2022-12-11T19:50:50.099Z,-0.45
2022-12-11T19:53:17.868Z,-0.47
2022-12-11T19:55:50.715Z,-0.51
2022-12-11T19:58:18.644Z,-0.48
2022-12-11T20:00:46.516Z,-0.50
2022-12-11T20:03:14.870Z,-0.47
2022-12-11T20:05:43.039Z,-0.47
2022-12-11T20:08:43.127Z,-0.47
2022-12-11T20:11:05.351Z,-0.50
2022-12-11T20:13:36.390Z,-0.47
2022-12-11T20:16:07.259Z,-0.51
2022-12-11T20:18:35.236Z,-0.55
2022-12-11T20:21:03.429Z,-0.61
2022-12-11T20:23:32.890Z,-0.64
2022-12-11T20:26:00.690Z,-0.50
2022-12-11T20:28:28.461Z,-0.44
2022-12-11T20:30:56.260Z,-0.42
2022-12-11T20:33:24.020Z,-0.37
2022-12-11T20:35:51.787Z,-0.38
2022-12-11T20:38:20.944Z,-0.28
2022-12-11T20:40:50.120Z,-0.33
2022-12-11T20:43:17.898Z,-0.21
2022-12-11T20:45:48.508Z,-0.28
2022-12-11T20:48:16.737Z,-0.34
2022-12-11T20:50:44.889Z,-0.40
2022-12-11T20:53:12.683Z,-0.41
2022-12-11T20:55:40.952Z,-0.40
2022-12-11T20:58:10.742Z,-0.33
2022-12-11T21:00:39.686Z,-0.38
2022-12-11T21:03:08.040Z,-0.34
2022-12-11T21:05:41.177Z,-0.42
2022-12-11T21:08:09.216Z,-0.48
2022-12-11T21:10:37.860Z,-0.53
2022-12-11T21:13:05.637Z,-0.45
2022-12-11T21:15:36.172Z,-0.48
2022-12-11T21:18:04.375Z,-0.53
2022-12-11T21:20:32.152Z,-0.47
2022-12-11T21:23:00.020Z,-0.42
2022-12-11T21:25:27.923Z,-0.37
2022-12-11T21:27:55.698Z,-0.44
2022-12-11T21:30:23.442Z,-0.48
2022-12-11T21:32:53.162Z,-0.48
2022-12-11T21:35:21.696Z,-0.57
2022-12-11T21:37:49.761Z,-0.50
2022-12-11T21:40:17.600Z,-0.53
2022-12-11T21:42:45.658Z,-0.51
2022-12-11T21:48:02.554Z,-0.61
2022-12-11T21:50:30.299Z,-0.60
2022-12-11T21:52:58.914Z,-0.65
2022-12-11T21:55:26.746Z,-0.66
2022-12-11T21:57:55.373Z,-0.71
2022-12-11T22:00:23.527Z,-0.68
2022-12-11T22:02:51.804Z,-0.72
2022-12-11T22:05:21.187Z,-0.76
2022-12-11T22:07:48.842Z,-0.79
2022-12-11T22:10:16.669Z,-0.75
2022-12-11T22:12:44.477Z,-0.81
2022-12-11T22:15:12.746Z,-0.88
2022-12-11T22:17:40.757Z,-0.93
2022-12-11T22:20:09.398Z,-1.03
2022-12-11T22:22:38.523Z,-1.12
2022-12-11T22:25:07.884Z,-1.17
2022-12-11T22:27:35.511Z,-1.15
2022-12-11T22:30:03.329Z,-1.20
2022-12-11T22:32:31.163Z,-1.21
2022-12-11T22:34:58.904Z,-1.30
2022-12-11T22:37:26.712Z,-1.39
2022-12-11T22:39:55.971Z,-1.44
2022-12-11T22:42:23.771Z,-1.53
2022-12-11T22:44:51.530Z,-1.60
2022-12-11T22:47:19.545Z,-1.66
2022-12-11T22:49:47.396Z,-1.48
2022-12-11T22:52:15.211Z,-1.53
2022-12-11T22:54:43.615Z,-1.70
2022-12-11T22:57:14.160Z,-1.78
2022-12-11T22:59:42.263Z,-1.78
2022-12-11T23:02:10.105Z,-1.92
2022-12-11T23:04:39.558Z,-2.10
2022-12-11T23:07:07.885Z,-2.21
2022-12-11T23:09:35.711Z,-2.19
2022-12-11T23:12:03.529Z,-2.26
2022-12-11T23:14:32.676Z,-2.19
2022-12-11T23:17:00.657Z,-2.19
2022-12-11T23:19:28.542Z,-2.13
2022-12-11T23:21:56.341Z,-2.09
2022-12-11T23:24:24.094Z,-2.06
2022-12-11T23:26:51.907Z,-1.94
2022-12-11T23:29:19.755Z,-1.91
2022-12-11T23:31:48.983Z,-1.79
2022-12-11T23:34:16.776Z,-1.81
2022-12-11T23:36:44.581Z,-1.79
2022-12-11T23:39:12.474Z,-1.78
2022-12-11T23:41:42.109Z,-1.75
2022-12-11T23:44:10.494Z,-1.72
2022-12-11T23:46:39.166Z,-1.66
2022-12-11T23:49:08.338Z,-1.58
2022-12-11T23:51:36.085Z,-1.48
2022-12-11T23:54:03.864Z,-1.51
2022-12-11T23:56:31.689Z,-1.63
2022-12-11T23:58:59.752Z,-1.71
